Terminal Aerodrome Forecast
Issued by NWS

Home | Current Version | Previous Version | Text Only | Print | Product List | Glossary On
Versions: 1 2 3 4 5 6 7 8 9 10 11 12 13 14 15 16 17 18 19 20
000
FTUS45 KABQ 310700 AAA
TAFLVS
TAF AMD
KLVS 310758Z 3108/0106 19008KT 2SM BR OVC015
      TEMPO 3108/3112 1/2SM SN FZFG OVC005
     FM311200 19009KT 2SM -SN BR OVC020
     FM311800 19009KT P6SM VCSH BKN030=

USA.gov is the U.S. government's official web portal to all federal, state and local government web resources and services.